Time;durP1;ratioP1;P1;durP2;ratioP2;P2;SDS_P1;SDS_P2;PMS_P1;PMS_P2;Temp;Humidity;BMP_temperature;BMP_pressure;BME280_temperature;BME280_humidity;BME280_pressure;Samples;Min_cycle;Max_cycle;Signal;HPM_P1;HPM_P2
2021/11/16 00:00:35;;;;;;;107.72;46.47;;;;;;;;;;4911242;29;20426;-89
2021/11/16 00:03:01;;;;;;;105.82;45.42;;;;;;;;;;4892951;29;20028;-88
2021/11/16 00:05:27;;;;;;;105.68;46.50;;;;;;;;;;4892877;29;20040;-89
2021/11/16 00:07:53;;;;;;;115.47;47.28;;;;;;;;;;4906726;29;20028;-88
2021/11/16 00:10:19;;;;;;;107.50;44.05;;;;;;;;;;4910678;29;20131;-89
2021/11/16 00:12:46;;;;;;;101.68;44.70;;;;;;;;;;4897022;29;20109;-88
2021/11/16 00:15:12;;;;;;;105.28;46.42;;;;;;;;;;4912221;29;20081;-89
2021/11/16 00:17:38;;;;;;;110.47;48.03;;;;;;;;;;4915867;29;20397;-88
2021/11/16 00:20:07;;;;;;;106.10;46.55;;;;;;;;;;4899327;29;20489;-88
2021/11/16 00:22:33;;;;;;;107.28;47.00;;;;;;;;;;4909617;29;20483;-88
2021/11/16 00:25:10;;;;;;;101.25;47.35;;;;;;;;;;4911355;29;20028;-88
2021/11/16 00:27:36;;;;;;;114.75;44.63;;;;;;;;;;4896741;29;20056;-88
2021/11/16 00:30:03;;;;;;;101.57;46.40;;;;;;;;;;4898810;29;20029;-89
2021/11/16 00:32:29;;;;;;;97.32;44.03;;;;;;;;;;4900157;29;20466;-87
2021/11/16 00:34:55;;;;;;;103.25;45.65;;;;;;;;;;4899669;29;20036;-88
2021/11/16 00:37:27;;;;;;;98.78;41.78;;;;;;;;;;4899641;29;20032;-88
2021/11/16 00:39:57;;;;;;;100.80;42.47;;;;;;;;;;4900570;29;20032;-88
2021/11/16 00:42:24;;;;;;;96.25;41.90;;;;;;;;;;4899070;29;20032;-90
2021/11/16 00:44:50;;;;;;;103.63;46.92;;;;;;;;;;4900296;29;20024;-88
2021/11/16 00:47:16;;;;;;;106.57;44.90;;;;;;;;;;4914655;29;20056;-88
2021/11/16 00:49:42;;;;;;;112.55;45.15;;;;;;;;;;4898772;29;20020;-88
2021/11/16 00:52:08;;;;;;;114.70;46.75;;;;;;;;;;4914623;29;20505;-88
2021/11/16 00:54:34;;;;;;;114.25;45.65;;;;;;;;;;4914909;29;20044;-88
2021/11/16 00:57:00;;;;;;;110.80;45.40;;;;;;;;;;4915337;29;20124;-89
2021/11/16 00:59:26;;;;;;;110.78;47.78;;;;;;;;;;4914910;29;20154;-88
2021/11/16 01:01:53;;;;;;;123.78;50.38;;;;;;;;;;4899440;29;20557;-88
2021/11/16 01:04:20;;;;;;;119.15;47.33;;;;;;;;;;4892255;29;20021;-89
2021/11/16 01:06:46;;;;;;;127.70;51.15;;;;;;;;;;4880010;29;20036;-88
2021/11/16 01:09:12;;;;;;;122.72;47.47;;;;;;;;;;4880392;29;20033;-88
2021/11/16 01:11:38;;;;;;;115.45;46.90;;;;;;;;;;4880602;29;20033;-88
2021/11/16 01:14:05;;;;;;;108.80;47.63;;;;;;;;;;4865765;29;20057;-87
2021/11/16 01:16:32;;;;;;;115.03;48.42;;;;;;;;;;4877174;29;20026;-88
2021/11/16 01:18:59;;;;;;;109.90;46.30;;;;;;;;;;4862652;29;20034;-88
2021/11/16 01:21:25;;;;;;;105.22;44.88;;;;;;;;;;4862063;29;20029;-89
2021/11/16 01:23:51;;;;;;;110.28;46.40;;;;;;;;;;4873844;29;20033;-88
2021/11/16 01:26:17;;;;;;;117.38;45.38;;;;;;;;;;4895345;29;20029;-89
2021/11/16 01:28:43;;;;;;;112.45;47.85;;;;;;;;;;4880623;29;20029;-88
2021/11/16 01:31:09;;;;;;;124.65;48.30;;;;;;;;;;4881846;29;20040;-88
2021/11/16 01:33:52;;;;;;;113.85;45.72;;;;;;;;;;4869708;29;20030;-89
2021/11/16 01:36:18;;;;;;;130.40;51.30;;;;;;;;;;4863095;29;20089;-88
2021/11/16 01:38:45;;;;;;;122.50;48.80;;;;;;;;;;4862843;29;20045;-88
2021/11/16 01:41:13;;;;;;;131.82;50.85;;;;;;;;;;4876863;29;20508;-87
2021/11/16 01:43:39;;;;;;;149.02;54.92;;;;;;;;;;4893732;29;20049;-88
2021/11/16 01:46:08;;;;;;;145.98;54.85;;;;;;;;;;4875657;29;20128;-87
2021/11/16 01:48:34;;;;;;;141.00;52.53;;;;;;;;;;4882487;29;20082;-87
2021/11/16 01:51:01;;;;;;;156.23;57.33;;;;;;;;;;4887516;29;20079;-88
2021/11/16 01:53:28;;;;;;;158.43;57.15;;;;;;;;;;4882050;29;20402;-88
2021/11/16 01:55:54;;;;;;;154.15;56.35;;;;;;;;;;4877825;29;20401;-88
2021/11/16 01:58:20;;;;;;;143.27;53.80;;;;;;;;;;4877025;29;20128;-85
2021/11/16 02:00:48;;;;;;;175.82;59.50;;;;;;;;;;4916694;29;20044;-88
2021/11/16 02:03:14;;;;;;;175.05;59.38;;;;;;;;;;4917876;29;20067;-88
2021/11/16 02:05:44;;;;;;;171.63;60.10;;;;;;;;;;4917894;29;20111;-88
2021/11/16 02:08:11;;;;;;;170.55;59.08;;;;;;;;;;4918167;29;20028;-88
2021/11/16 02:10:37;;;;;;;177.15;62.65;;;;;;;;;;4901275;29;20379;-88
2021/11/16 02:13:03;;;;;;;157.23;58.50;;;;;;;;;;4901990;29;20024;-89
2021/11/16 02:15:30;;;;;;;161.40;57.08;;;;;;;;;;4919131;29;20362;-88
2021/11/16 02:17:56;;;;;;;152.48;53.85;;;;;;;;;;4901765;29;20039;-88
2021/11/16 02:20:22;;;;;;;167.88;58.67;;;;;;;;;;4900944;29;20028;-88
2021/11/16 02:22:49;;;;;;;180.77;62.33;;;;;;;;;;4918522;29;20032;-88
2021/11/16 02:25:15;;;;;;;178.40;64.25;;;;;;;;;;4900613;29;20115;-88
2021/11/16 02:27:41;;;;;;;175.98;63.78;;;;;;;;;;4900731;29;20506;-88
2021/11/16 02:30:08;;;;;;;167.20;58.30;;;;;;;;;;4900559;29;20028;-88
2021/11/16 02:32:34;;;;;;;166.50;65.38;;;;;;;;;;4917166;29;20024;-88
2021/11/16 02:35:00;;;;;;;175.20;62.60;;;;;;;;;;4917294;29;20032;-87
2021/11/16 02:37:33;;;;;;;181.57;63.30;;;;;;;;;;4900541;29;20102;-88
2021/11/16 02:40:00;;;;;;;193.98;62.88;;;;;;;;;;4917163;29;20028;-87
2021/11/16 02:42:27;;;;;;;177.68;61.80;;;;;;;;;;4916821;29;20031;-88
2021/11/16 02:44:53;;;;;;;168.68;59.90;;;;;;;;;;4899883;29;20478;-88
2021/11/16 02:47:19;;;;;;;198.90;69.50;;;;;;;;;;4917389;29;20419;-88
2021/11/16 02:49:45;;;;;;;176.68;63.10;;;;;;;;;;4917258;29;20036;-88
2021/11/16 02:52:13;;;;;;;185.85;66.20;;;;;;;;;;4899631;29;20059;-87
2021/11/16 02:54:39;;;;;;;193.55;66.85;;;;;;;;;;4916734;29;20490;-88
2021/11/16 02:57:06;;;;;;;187.05;65.20;;;;;;;;;;4916776;29;20047;-88
2021/11/16 02:59:32;;;;;;;170.50;63.85;;;;;;;;;;4896640;29;20055;-88
2021/11/16 03:01:58;;;;;;;176.73;65.05;;;;;;;;;;4896996;29;20036;-89
2021/11/16 03:04:24;;;;;;;184.55;65.35;;;;;;;;;;4896899;29;20127;-88
2021/11/16 03:06:50;;;;;;;201.38;67.97;;;;;;;;;;4896902;29;20025;-87
2021/11/16 03:09:16;;;;;;;187.57;65.80;;;;;;;;;;4897141;29;20029;-87
2021/11/16 03:11:42;;;;;;;174.30;64.60;;;;;;;;;;4896825;29;20031;-88
2021/11/16 03:14:09;;;;;;;186.88;65.60;;;;;;;;;;4896232;29;20028;-88
2021/11/16 03:16:35;;;;;;;176.35;64.10;;;;;;;;;;4897968;29;20392;-88
2021/11/16 03:19:01;;;;;;;169.05;64.07;;;;;;;;;;4898062;29;20020;-88
2021/11/16 03:21:27;;;;;;;185.07;67.13;;;;;;;;;;4896871;29;20032;-88
2021/11/16 03:23:56;;;;;;;179.02;66.55;;;;;;;;;;4896355;29;20112;-87
2021/11/16 03:26:24;;;;;;;172.98;65.82;;;;;;;;;;4897369;29;20027;-88
2021/11/16 03:28:51;;;;;;;151.88;60.83;;;;;;;;;;4896610;29;20029;-86
2021/11/16 03:31:28;;;;;;;154.30;57.40;;;;;;;;;;4896694;29;20505;-86
2021/11/16 03:33:54;;;;;;;145.40;57.00;;;;;;;;;;4896416;29;20040;-86
2021/11/16 03:36:20;;;;;;;149.43;57.95;;;;;;;;;;4896410;29;20076;-86
2021/11/16 03:38:47;;;;;;;140.02;57.20;;;;;;;;;;4897199;29;20032;-87
2021/11/16 03:41:14;;;;;;;139.35;56.22;;;;;;;;;;4896019;29;20435;-87
2021/11/16 03:43:40;;;;;;;131.90;56.58;;;;;;;;;;4895784;29;20474;-86
2021/11/16 03:46:06;;;;;;;131.25;56.40;;;;;;;;;;4897535;29;20089;-86
2021/11/16 03:48:32;;;;;;;133.98;55.60;;;;;;;;;;4896546;29;20119;-86
2021/11/16 03:50:59;;;;;;;135.65;55.40;;;;;;;;;;4896492;29;20538;-87
2021/11/16 03:53:25;;;;;;;121.88;52.92;;;;;;;;;;4897518;29;20052;-86
2021/11/16 03:55:51;;;;;;;126.72;54.33;;;;;;;;;;4896155;29;20116;-86
2021/11/16 03:58:18;;;;;;;119.70;51.50;;;;;;;;;;4896347;29;20043;-86
2021/11/16 04:00:47;;;;;;;115.32;53.70;;;;;;;;;;4907625;29;20056;-86
2021/11/16 04:03:13;;;;;;;102.82;48.47;;;;;;;;;;4907781;29;20190;-87
2021/11/16 04:05:41;;;;;;;109.97;49.38;;;;;;;;;;4900137;29;20164;-87
2021/11/16 04:08:07;;;;;;;119.65;51.10;;;;;;;;;;4898561;29;20495;-86
2021/11/16 04:10:34;;;;;;;105.13;48.00;;;;;;;;;;4900512;29;20024;-86
2021/11/16 04:13:00;;;;;;;109.80;50.10;;;;;;;;;;4899999;29;20023;-86
2021/11/16 04:15:28;;;;;;;105.35;50.88;;;;;;;;;;4899817;29;20036;-87
2021/11/16 04:17:55;;;;;;;102.32;47.42;;;;;;;;;;4900479;29;20031;-87
2021/11/16 04:20:25;;;;;;;109.03;49.00;;;;;;;;;;4899399;29;20507;-86
2021/11/16 04:22:52;;;;;;;112.70;49.55;;;;;;;;;;4893375;29;20076;-86
2021/11/16 04:25:18;;;;;;;106.78;51.17;;;;;;;;;;4899638;29;20028;-86
2021/11/16 04:27:44;;;;;;;99.63;48.15;;;;;;;;;;4905076;29;20051;-86
2021/11/16 04:30:12;;;;;;;97.18;47.67;;;;;;;;;;4898789;29;20093;-86
2021/11/16 04:32:38;;;;;;;105.43;47.50;;;;;;;;;;4914847;29;20043;-87
2021/11/16 04:35:05;;;;;;;107.68;50.92;;;;;;;;;;4899769;29;20021;-86
2021/11/16 04:37:31;;;;;;;101.43;48.92;;;;;;;;;;4900765;29;20116;-87
2021/11/16 04:39:57;;;;;;;95.75;48.22;;;;;;;;;;4899144;29;20107;-87
2021/11/16 04:42:24;;;;;;;100.32;48.55;;;;;;;;;;4899025;29;20442;-86
2021/11/16 04:44:50;;;;;;;93.60;46.30;;;;;;;;;;4899050;29;20111;-87
2021/11/16 04:47:20;;;;;;;97.20;46.00;;;;;;;;;;4898556;29;20025;-87
2021/11/16 04:49:51;;;;;;;93.47;47.00;;;;;;;;;;4899208;29;20142;-86
2021/11/16 05:05:11;;;;;;;90.25;43.00;;;;;;;;;;4927150;29;20043;-86
2021/11/16 05:07:41;;;;;;;91.10;43.90;;;;;;;;;;4907769;29;20070;-86
2021/11/16 05:10:08;;;;;;;94.20;45.97;;;;;;;;;;4905922;29;20035;-86
2021/11/16 05:12:36;;;;;;;89.63;47.90;;;;;;;;;;4903244;29;20176;-86
2021/11/16 05:15:05;;;;;;;97.40;47.75;;;;;;;;;;4914349;29;20039;-86
2021/11/16 05:17:32;;;;;;;91.95;47.75;;;;;;;;;;4917387;29;20020;-87
2021/11/16 05:19:58;;;;;;;93.32;45.90;;;;;;;;;;4902834;29;20075;-85
2021/11/16 05:22:24;;;;;;;87.72;46.25;;;;;;;;;;4902348;29;20034;-87
2021/11/16 05:24:51;;;;;;;90.25;44.70;;;;;;;;;;4907494;29;20025;-87
2021/11/16 05:27:17;;;;;;;85.50;45.83;;;;;;;;;;4915302;29;20393;-86
2021/11/16 05:29:44;;;;;;;84.88;42.83;;;;;;;;;;4934605;29;20047;-87
2021/11/16 05:32:10;;;;;;;85.22;44.95;;;;;;;;;;4913487;29;20028;-86
2021/11/16 05:34:36;;;;;;;84.32;43.92;;;;;;;;;;4914053;29;20032;-87
2021/11/16 05:37:02;;;;;;;87.78;41.47;;;;;;;;;;4909549;29;20032;-86
2021/11/16 05:39:28;;;;;;;88.18;43.63;;;;;;;;;;4929686;29;20043;-87
2021/11/16 05:41:54;;;;;;;84.15;43.28;;;;;;;;;;4912182;29;20028;-86
2021/11/16 05:44:20;;;;;;;78.47;43.58;;;;;;;;;;4911977;29;20040;-86
2021/11/16 05:46:46;;;;;;;87.57;44.38;;;;;;;;;;4918450;29;20032;-86
2021/11/16 05:49:12;;;;;;;82.28;42.63;;;;;;;;;;4918664;29;20027;-87
2021/11/16 05:51:38;;;;;;;79.97;43.13;;;;;;;;;;4901830;29;20032;-86
2021/11/16 05:54:06;;;;;;;81.25;42.05;;;;;;;;;;4909010;29;20447;-86
2021/11/16 05:56:38;;;;;;;81.45;41.20;;;;;;;;;;4902516;29;20056;-87
2021/11/16 05:59:04;;;;;;;87.70;43.08;;;;;;;;;;4897873;29;20084;-86
2021/11/16 06:01:32;;;;;;;81.85;42.35;;;;;;;;;;4914922;29;20390;-87
2021/11/16 06:03:59;;;;;;;82.00;42.90;;;;;;;;;;4899004;29;20039;-86
2021/11/16 06:06:27;;;;;;;80.25;42.38;;;;;;;;;;4898922;29;20044;-86
2021/11/16 06:08:54;;;;;;;87.85;45.67;;;;;;;;;;4896687;29;20111;-86
2021/11/16 06:11:20;;;;;;;81.80;42.22;;;;;;;;;;4897889;29;20025;-87
2021/11/16 06:13:47;;;;;;;90.32;44.35;;;;;;;;;;4897961;29;20068;-87
2021/11/16 06:16:14;;;;;;;79.75;42.70;;;;;;;;;;4897641;29;20028;-87
2021/11/16 06:18:41;;;;;;;79.88;42.88;;;;;;;;;;4911002;29;20029;-87
2021/11/16 06:21:07;;;;;;;82.80;44.63;;;;;;;;;;4899227;29;20032;-87
2021/11/16 06:23:35;;;;;;;80.85;40.95;;;;;;;;;;4899290;29;20274;-87
2021/11/16 06:26:01;;;;;;;84.70;44.60;;;;;;;;;;4898559;29;20048;-87
2021/11/16 06:28:27;;;;;;;89.05;43.92;;;;;;;;;;4897366;29;20020;-87
2021/11/16 06:30:53;;;;;;;84.18;41.70;;;;;;;;;;4910779;29;20032;-88
2021/11/16 06:33:20;;;;;;;81.78;42.45;;;;;;;;;;4894282;29;20085;-87
2021/11/16 06:35:46;;;;;;;87.60;42.35;;;;;;;;;;4908197;29;20056;-86
2021/11/16 06:38:12;;;;;;;78.80;40.33;;;;;;;;;;4898508;29;20028;-87
2021/11/16 06:40:40;;;;;;;76.45;42.13;;;;;;;;;;4902779;29;20095;-87
2021/11/16 06:43:06;;;;;;;71.68;40.65;;;;;;;;;;4899539;29;20036;-87
2021/11/16 06:45:33;;;;;;;77.18;41.08;;;;;;;;;;4903673;29;20101;-86
2021/11/16 06:47:59;;;;;;;74.22;40.15;;;;;;;;;;4919459;29;20025;-87
2021/11/16 06:50:25;;;;;;;65.38;37.88;;;;;;;;;;4901687;29;20036;-86
2021/11/16 06:52:51;;;;;;;67.35;38.03;;;;;;;;;;4902913;29;20043;-86
2021/11/16 06:55:17;;;;;;;66.20;37.15;;;;;;;;;;4905550;29;20359;-86
2021/11/16 06:57:46;;;;;;;68.65;39.65;;;;;;;;;;4902894;29;20064;-87
2021/11/16 07:00:13;;;;;;;64.47;37.60;;;;;;;;;;4919234;29;20103;-86
2021/11/16 07:02:40;;;;;;;59.65;34.90;;;;;;;;;;4899857;29;20085;-86
2021/11/16 07:05:10;;;;;;;60.33;37.35;;;;;;;;;;4917565;29;20355;-87
2021/11/16 07:07:44;;;;;;;70.43;37.55;;;;;;;;;;4912311;29;20024;-87
2021/11/16 07:10:14;;;;;;;62.58;35.95;;;;;;;;;;4898439;29;20128;-87
2021/11/16 07:12:40;;;;;;;60.83;36.65;;;;;;;;;;4898360;29;20053;-86
2021/11/16 07:15:07;;;;;;;60.30;36.42;;;;;;;;;;4898866;29;20039;-87
2021/11/16 07:17:33;;;;;;;64.82;36.78;;;;;;;;;;4899401;29;20047;-86
2021/11/16 07:19:59;;;;;;;58.30;36.95;;;;;;;;;;4899408;29;20035;-86
2021/11/16 07:22:27;;;;;;;57.08;34.33;;;;;;;;;;4899829;29;20024;-86
2021/11/16 07:24:53;;;;;;;64.38;37.42;;;;;;;;;;4900389;29;20065;-86
2021/11/16 07:27:21;;;;;;;60.22;36.97;;;;;;;;;;4916808;29;20029;-86
2021/11/16 07:29:52;;;;;;;62.60;36.15;;;;;;;;;;4900173;29;20047;-86
2021/11/16 07:32:21;;;;;;;61.45;36.53;;;;;;;;;;4900095;29;20039;-87
2021/11/16 07:34:50;;;;;;;62.97;36.95;;;;;;;;;;4899567;29;20038;-86
2021/11/16 07:37:18;;;;;;;61.78;34.85;;;;;;;;;;4900065;29;20111;-86
2021/11/16 07:39:52;;;;;;;58.05;35.75;;;;;;;;;;4899794;29;20389;-86
2021/11/16 07:42:19;;;;;;;57.83;33.80;;;;;;;;;;4899632;29;20043;-85
2021/11/16 07:45:15;;;;;;;55.67;34.40;;;;;;;;;;4900076;29;20035;-85
2021/11/16 07:47:48;;;;;;;57.25;33.78;;;;;;;;;;4840173;29;20484;-87
2021/11/16 07:50:19;;;;;;;58.63;35.38;;;;;;;;;;4825146;29;20580;-85
2021/11/16 07:52:47;;;;;;;58.10;33.00;;;;;;;;;;4824836;29;20069;-84
2021/11/16 07:55:21;;;;;;;60.95;35.35;;;;;;;;;;4840021;29;20571;-88
2021/11/16 07:57:47;;;;;;;61.08;35.63;;;;;;;;;;4840228;29;20520;-86
2021/11/16 08:00:25;;;;;;;59.92;36.60;;;;;;;;;;4840016;29;20191;-86
2021/11/16 08:03:00;;;;;;;60.13;37.25;;;;;;;;;;4839355;29;20030;-86
2021/11/16 08:08:37;;;;;;;58.42;34.83;;;;;;;;;;4840191;29;20069;-86
2021/11/16 08:11:16;;;;;;;62.45;37.65;;;;;;;;;;4788536;29;20035;-86
2021/11/16 08:14:05;;;;;;;53.92;33.65;;;;;;;;;;4788679;29;20612;-85
2021/11/16 08:16:31;;;;;;;57.53;33.53;;;;;;;;;;4803801;29;20043;-85
2021/11/16 08:19:05;;;;;;;55.28;32.75;;;;;;;;;;4803973;29;20027;-85
2021/11/16 08:21:31;;;;;;;51.40;32.05;;;;;;;;;;4804636;29;20035;-85
2021/11/16 08:24:00;;;;;;;50.28;33.25;;;;;;;;;;4824316;29;20053;-85
2021/11/16 08:26:34;;;;;;;51.30;32.22;;;;;;;;;;4858948;29;20064;-85
2021/11/16 08:29:01;;;;;;;48.83;30.38;;;;;;;;;;4843372;29;20057;-88
2021/11/16 08:31:34;;;;;;;46.22;29.67;;;;;;;;;;4844064;29;20022;-85
2021/11/16 08:34:00;;;;;;;48.28;30.45;;;;;;;;;;4844505;29;20076;-87
2021/11/16 08:36:28;;;;;;;46.50;30.38;;;;;;;;;;4843176;29;20029;-86
2021/11/16 08:38:56;;;;;;;50.10;31.52;;;;;;;;;;4843740;29;20038;-85
2021/11/16 08:41:28;;;;;;;50.15;30.52;;;;;;;;;;4843873;29;20512;-86
2021/11/16 08:44:06;;;;;;;44.17;29.90;;;;;;;;;;4842989;29;20480;-86
2021/11/16 08:46:32;;;;;;;46.15;29.10;;;;;;;;;;4871608;29;20446;-86
2021/11/16 08:48:59;;;;;;;43.17;27.15;;;;;;;;;;4899835;29;20083;-85
2021/11/16 08:51:27;;;;;;;43.38;26.00;;;;;;;;;;4920005;29;20055;-85
2021/11/16 08:53:53;;;;;;;35.97;23.80;;;;;;;;;;4902959;29;20123;-85
2021/11/16 08:56:26;;;;;;;44.13;28.77;;;;;;;;;;4903082;29;20386;-85
2021/11/16 08:58:52;;;;;;;37.42;26.05;;;;;;;;;;4902708;29;20043;-87
2021/11/16 09:01:18;;;;;;;39.42;26.33;;;;;;;;;;4902549;29;20028;-87
2021/11/16 09:03:46;;;;;;;34.10;22.60;;;;;;;;;;4902552;29;20082;-87
2021/11/16 09:06:18;;;;;;;34.50;22.65;;;;;;;;;;4902626;29;20482;-87
2021/11/16 09:08:44;;;;;;;35.08;22.75;;;;;;;;;;4902828;29;20032;-87
2021/11/16 09:11:10;;;;;;;37.38;21.00;;;;;;;;;;4902847;29;20107;-87
2021/11/16 09:13:37;;;;;;;32.95;21.17;;;;;;;;;;4902366;29;20036;-88
2021/11/16 09:16:05;;;;;;;33.78;21.88;;;;;;;;;;4918922;29;20032;-87
2021/11/16 09:18:41;;;;;;;40.35;22.10;;;;;;;;;;4919623;29;20154;-86
2021/11/16 09:21:09;;;;;;;34.10;20.42;;;;;;;;;;4902209;29;20032;-85
2021/11/16 09:23:43;;;;;;;32.13;20.92;;;;;;;;;;4902435;29;20394;-86
2021/11/16 09:26:18;;;;;;;31.05;19.92;;;;;;;;;;4902419;29;20055;-87
2021/11/16 09:28:52;;;;;;;32.78;19.65;;;;;;;;;;4902008;29;20032;-87
2021/11/16 09:31:20;;;;;;;32.13;19.80;;;;;;;;;;4902151;29;20067;-87
2021/11/16 09:33:47;;;;;;;34.20;21.48;;;;;;;;;;4902049;29;20032;-86
2021/11/16 09:36:33;;;;;;;33.20;20.65;;;;;;;;;;4901710;29;20047;-88
2021/11/16 09:39:06;;;;;;;35.55;20.92;;;;;;;;;;4902054;29;20086;-87
2021/11/16 09:41:34;;;;;;;28.73;19.58;;;;;;;;;;4902212;29;20032;-87
2021/11/16 09:44:24;;;;;;;34.60;20.02;;;;;;;;;;4901501;29;20025;-86
2021/11/16 09:46:59;;;;;;;31.52;19.88;;;;;;;;;;4895006;29;20040;-86
2021/11/16 09:49:28;;;;;;;26.23;17.33;;;;;;;;;;4901930;29;20032;-85
2021/11/16 09:51:56;;;;;;;32.58;17.65;;;;;;;;;;4902414;29;20393;-85
2021/11/16 09:54:23;;;;;;;27.15;17.55;;;;;;;;;;4903244;29;20172;-88
2021/11/16 09:57:08;;;;;;;25.52;17.75;;;;;;;;;;4901976;29;20059;-90
2021/11/16 09:59:38;;;;;;;25.50;16.08;;;;;;;;;;4900830;29;20202;-86
2021/11/16 10:02:05;;;;;;;25.10;17.50;;;;;;;;;;4901737;29;20040;-88
2021/11/16 10:04:35;;;;;;;33.67;18.45;;;;;;;;;;4918495;29;20474;-86
2021/11/16 10:07:01;;;;;;;30.52;18.67;;;;;;;;;;4918470;29;20040;-86
2021/11/16 10:09:28;;;;;;;27.65;17.92;;;;;;;;;;4898334;29;20032;-86
2021/11/16 10:11:54;;;;;;;26.10;16.67;;;;;;;;;;4898146;29;20076;-87
2021/11/16 10:14:21;;;;;;;25.35;16.50;;;;;;;;;;4912961;29;20035;-87
2021/11/16 10:16:49;;;;;;;23.52;17.20;;;;;;;;;;4906977;29;20497;-88
2021/11/16 10:19:15;;;;;;;26.58;17.08;;;;;;;;;;4901348;29;20068;-86
2021/11/16 10:21:42;;;;;;;30.52;18.83;;;;;;;;;;4918320;29;20533;-86
2021/11/16 10:24:30;;;;;;;27.65;17.92;;;;;;;;;;4901315;29;20042;-86
2021/11/16 10:27:03;;;;;;;25.83;17.17;;;;;;;;;;4900911;29;20024;-86
2021/11/16 10:29:30;;;;;;;28.10;17.90;;;;;;;;;;4917117;29;20039;-86
2021/11/16 10:31:56;;;;;;;28.00;18.15;;;;;;;;;;4900881;29;20043;-87
2021/11/16 10:34:43;;;;;;;24.83;16.73;;;;;;;;;;4901022;29;20016;-87
2021/11/16 10:37:09;;;;;;;26.15;18.00;;;;;;;;;;4916765;29;20036;-86
2021/11/16 10:39:35;;;;;;;27.05;18.38;;;;;;;;;;4901057;29;20059;-87
2021/11/16 10:42:04;;;;;;;26.23;17.55;;;;;;;;;;4900672;29;20036;-87
2021/11/16 10:44:32;;;;;;;28.58;17.63;;;;;;;;;;4900477;29;20032;-87
2021/11/16 10:47:01;;;;;;;24.38;16.13;;;;;;;;;;4901284;29;20024;-88
2021/11/16 10:49:27;;;;;;;22.73;16.20;;;;;;;;;;4918438;29;20055;-86
2021/11/16 10:51:53;;;;;;;23.63;16.48;;;;;;;;;;4917566;29;20035;-88
2021/11/16 10:54:19;;;;;;;27.50;15.75;;;;;;;;;;4917122;29;20055;-88
2021/11/16 10:56:47;;;;;;;24.58;16.70;;;;;;;;;;4917433;29;20032;-88
2021/11/16 10:59:18;;;;;;;24.38;17.02;;;;;;;;;;4896780;29;20135;-88
2021/11/16 11:01:47;;;;;;;29.23;18.38;;;;;;;;;;4897374;29;20067;-87
2021/11/16 11:04:14;;;;;;;25.77;18.35;;;;;;;;;;4897323;29;20033;-87
2021/11/16 11:06:43;;;;;;;26.55;17.92;;;;;;;;;;4897334;29;20490;-87
2021/11/16 11:09:09;;;;;;;25.80;16.88;;;;;;;;;;4897408;29;20502;-88
2021/11/16 11:11:37;;;;;;;23.23;15.50;;;;;;;;;;4897055;29;20032;-86
2021/11/16 11:14:17;;;;;;;24.73;17.30;;;;;;;;;;4894098;29;20029;-88
2021/11/16 11:16:51;;;;;;;23.88;17.17;;;;;;;;;;4894258;29;20059;-87
2021/11/16 11:19:18;;;;;;;22.88;15.95;;;;;;;;;;4904139;29;20123;-87
2021/11/16 11:21:54;;;;;;;25.00;16.00;;;;;;;;;;4896923;29;20036;-88
2021/11/16 11:24:25;;;;;;;22.13;15.32;;;;;;;;;;4896513;29;20033;-87
2021/11/16 11:26:57;;;;;;;25.10;15.25;;;;;;;;;;4896829;29;20025;-87
2021/11/16 11:29:25;;;;;;;22.58;16.40;;;;;;;;;;4896762;29;20404;-89
2021/11/16 11:32:04;;;;;;;22.58;14.95;;;;;;;;;;4896896;29;20387;-88
2021/11/16 11:34:31;;;;;;;22.90;14.63;;;;;;;;;;4896967;29;20051;-88
2021/11/16 11:37:06;;;;;;;23.15;15.27;;;;;;;;;;4898314;29;20025;-88
2021/11/16 11:39:32;;;;;;;21.42;14.45;;;;;;;;;;4897170;29;20028;-87
2021/11/16 11:41:59;;;;;;;21.30;13.75;;;;;;;;;;4896664;29;20084;-87
2021/11/16 11:44:27;;;;;;;19.63;13.38;;;;;;;;;;4895217;29;20037;-88
2021/11/16 11:47:00;;;;;;;21.20;14.55;;;;;;;;;;4896586;29;20475;-87
2021/11/16 11:49:30;;;;;;;19.05;12.82;;;;;;;;;;4896871;29;20025;-88
2021/11/16 11:51:58;;;;;;;20.73;13.38;;;;;;;;;;4912572;29;20088;-87
2021/11/16 11:54:25;;;;;;;21.95;14.30;;;;;;;;;;4898102;29;20483;-87
2021/11/16 11:56:54;;;;;;;24.15;15.63;;;;;;;;;;4896162;29;20036;-87
2021/11/16 11:59:20;;;;;;;22.63;14.73;;;;;;;;;;4896784;29;20056;-89
2021/11/16 12:01:47;;;;;;;21.08;13.60;;;;;;;;;;4896728;29;20119;-88
2021/11/16 12:04:18;;;;;;;21.13;14.05;;;;;;;;;;4896724;29;20080;-89
2021/11/16 12:06:46;;;;;;;19.67;13.88;;;;;;;;;;4897080;29;20025;-89
2021/11/16 12:09:12;;;;;;;24.25;13.85;;;;;;;;;;4912586;29;20079;-88
2021/11/16 12:11:38;;;;;;;23.25;15.50;;;;;;;;;;4914615;29;20029;-87
2021/11/16 12:14:09;;;;;;;24.30;15.05;;;;;;;;;;4897556;29;20054;-87
2021/11/16 12:16:38;;;;;;;21.58;14.65;;;;;;;;;;4892705;29;20045;-88
2021/11/16 12:19:08;;;;;;;20.30;14.70;;;;;;;;;;4898332;29;20456;-87
2021/11/16 12:21:34;;;;;;;20.25;14.13;;;;;;;;;;4896501;29;20029;-87
2021/11/16 12:24:04;;;;;;;20.05;14.45;;;;;;;;;;4895667;29;20035;-88
2021/11/16 12:26:31;;;;;;;22.23;14.65;;;;;;;;;;4900271;29;20040;-88
2021/11/16 12:29:18;;;;;;;21.02;13.55;;;;;;;;;;4900152;29;20383;-87
2021/11/16 12:31:46;;;;;;;19.48;14.05;;;;;;;;;;4901271;29;20021;-85
2021/11/16 12:34:13;;;;;;;21.30;13.85;;;;;;;;;;4900782;29;20032;-87
2021/11/16 12:36:43;;;;;;;20.83;14.18;;;;;;;;;;4899816;29;20037;-87
2021/11/16 12:39:18;;;;;;;19.88;13.70;;;;;;;;;;4900771;29;20028;-87
2021/11/16 12:41:46;;;;;;;24.05;14.02;;;;;;;;;;4901236;29;20021;-88
2021/11/16 12:44:32;;;;;;;18.88;13.77;;;;;;;;;;4899725;29;20134;-85
2021/11/16 12:47:06;;;;;;;20.15;13.27;;;;;;;;;;4890277;29;20067;-85
2021/11/16 12:49:39;;;;;;;19.58;13.50;;;;;;;;;;4900743;29;20021;-88
2021/11/16 12:52:07;;;;;;;19.05;13.15;;;;;;;;;;4899407;29;20039;-86
2021/11/16 12:54:34;;;;;;;22.15;13.63;;;;;;;;;;4901615;29;20430;-85
2021/11/16 12:57:00;;;;;;;19.05;12.93;;;;;;;;;;4900590;29;20095;-86
2021/11/16 12:59:29;;;;;;;21.13;13.55;;;;;;;;;;4915839;29;20049;-87
2021/11/16 13:01:57;;;;;;;20.15;13.52;;;;;;;;;;4916186;29;20072;-85
2021/11/16 13:04:38;;;;;;;18.45;11.68;;;;;;;;;;4900833;29;20115;-85
2021/11/16 13:07:23;;;;;;;21.13;13.48;;;;;;;;;;4899835;29;20029;-86
2021/11/16 13:10:05;;;;;;;17.70;12.52;;;;;;;;;;4900501;29;20486;-85
2021/11/16 13:12:36;;;;;;;22.33;13.15;;;;;;;;;;4901297;29;20033;-85
2021/11/16 13:15:08;;;;;;;23.17;13.35;;;;;;;;;;4901821;29;20033;-85
2021/11/16 13:17:50;;;;;;;19.05;12.43;;;;;;;;;;4902437;29;20395;-85
2021/11/16 13:20:17;;;;;;;20.67;13.50;;;;;;;;;;4900588;29;20376;-86
2021/11/16 13:22:54;;;;;;;19.38;12.57;;;;;;;;;;4910447;29;20109;-86
2021/11/16 13:25:42;;;;;;;19.65;12.65;;;;;;;;;;4899171;29;20028;-85
2021/11/16 13:31:01;;;;;;;21.47;12.87;;;;;;;;;;4897873;29;20083;-87
2021/11/16 13:33:48;;;;;;;20.00;12.70;;;;;;;;;;4899473;29;20138;-87
2021/11/16 13:36:18;;;;;;;23.10;13.50;;;;;;;;;;4899741;29;20029;-86
2021/11/16 13:38:58;;;;;;;22.63;14.30;;;;;;;;;;4884426;29;20036;-87
2021/11/16 13:41:43;;;;;;;24.65;14.77;;;;;;;;;;4901399;29;20025;-86
2021/11/16 13:44:13;;;;;;;22.98;13.60;;;;;;;;;;4899177;29;20040;-86
2021/11/16 13:46:40;;;;;;;20.58;13.75;;;;;;;;;;4899193;29;20021;-87
2021/11/16 13:49:07;;;;;;;22.75;13.35;;;;;;;;;;4899445;29;20120;-85
2021/11/16 13:51:34;;;;;;;19.77;14.43;;;;;;;;;;4900151;29;20017;-85
2021/11/16 13:54:00;;;;;;;20.52;13.07;;;;;;;;;;4900231;29;20127;-86
2021/11/16 13:56:27;;;;;;;19.13;12.75;;;;;;;;;;4899981;29;20036;-87
2021/11/16 13:58:53;;;;;;;20.95;13.07;;;;;;;;;;4897349;29;20128;-86
2021/11/16 14:01:34;;;;;;;22.17;13.18;;;;;;;;;;4915784;29;20041;-85
2021/11/16 14:04:09;;;;;;;21.60;13.15;;;;;;;;;;4900300;29;20035;-86
2021/11/16 14:06:36;;;;;;;20.85;12.95;;;;;;;;;;4899213;29;20121;-87
2021/11/16 14:09:12;;;;;;;20.40;12.75;;;;;;;;;;4900761;29;20031;-86
2021/11/16 14:11:51;;;;;;;19.02;12.35;;;;;;;;;;4900523;29;20108;-86
2021/11/16 14:14:19;;;;;;;21.13;13.48;;;;;;;;;;4899576;29;20225;-85
2021/11/16 14:16:46;;;;;;;19.45;12.43;;;;;;;;;;4899113;29;20028;-86
2021/11/16 14:19:13;;;;;;;19.08;12.73;;;;;;;;;;4899058;29;20060;-85
2021/11/16 14:21:39;;;;;;;21.30;13.30;;;;;;;;;;4899191;29;20036;-85
2021/11/16 14:24:06;;;;;;;20.13;13.55;;;;;;;;;;4899247;29;20028;-85
2021/11/16 14:26:33;;;;;;;23.38;13.90;;;;;;;;;;4898809;29;20398;-85
2021/11/16 14:28:59;;;;;;;21.40;13.73;;;;;;;;;;4900309;29;20020;-86
2021/11/16 14:31:27;;;;;;;22.40;13.77;;;;;;;;;;4898405;29;20043;-86
2021/11/16 14:33:58;;;;;;;22.35;13.88;;;;;;;;;;4898178;29;20025;-86
2021/11/16 14:36:31;;;;;;;21.23;13.40;;;;;;;;;;4899130;29;20123;-87
2021/11/16 14:39:03;;;;;;;21.90;14.18;;;;;;;;;;4916340;29;20024;-87
2021/11/16 14:41:29;;;;;;;21.30;12.95;;;;;;;;;;4902817;29;20048;-87